Time;durP1;ratioP1;P1;durP2;ratioP2;P2;SDS_P1;SDS_P2;PMS_P1;PMS_P2;Temp;Humidity;BMP_temperature;BMP_pressure;BME280_temperature;BME280_humidity;BME280_pressure;Samples;Min_cycle;Max_cycle;Signal;HPM_P1;HPM_P2
2022/12/25 00:00:16;;;;;;;;;;;;;;;18.35;64.29;99139.78;2072310;28;20449;-74
2022/12/25 00:01:20;;;;;;;;;;;;;;;18.37;64.33;99145.81;2069684;28;19955;-74
2022/12/25 00:02:20;;;;;;;;;;;;;;;18.39;64.21;99145.63;2069512;28;20305;-74
2022/12/25 00:03:22;;;;;;;;;;;;;;;18.39;64.37;99151.00;2062649;28;20059;-74
2022/12/25 00:04:22;;;;;;;;;;;;;;;18.37;64.33;99147.66;2066201;28;19936;-74
2022/12/25 00:05:24;;;;;;;;;;;;;;;18.37;64.21;99151.19;2069464;28;19928;-74
2022/12/25 00:06:24;;;;;;;;;;;;;;;18.38;64.00;99146.63;2075795;28;19925;-75
2022/12/25 00:07:26;;;;;;;;;;;;;;;18.38;64.23;99152.00;2069971;28;19932;-74
2022/12/25 00:08:28;;;;;;;;;;;;;;;18.37;64.07;99147.66;2070612;28;19932;-74
2022/12/25 00:09:29;;;;;;;;;;;;;;;18.36;64.39;99146.84;2078859;28;19932;-74
2022/12/25 00:10:30;;;;;;;;;;;;;;;18.32;64.34;99150.91;2074783;28;20508;-75
2022/12/25 00:11:31;;;;;;;;;;;;;;;18.33;64.34;99149.91;2078155;28;19931;-74
2022/12/25 00:12:32;;;;;;;;;;;;;;;18.33;64.31;99155.28;2077347;28;20007;-74
2022/12/25 00:13:34;;;;;;;;;;;;;;;18.31;64.45;99142.03;2074927;28;20356;-74
2022/12/25 00:14:34;;;;;;;;;;;;;;;18.33;64.24;99155.28;2073021;28;19936;-74
2022/12/25 00:15:39;;;;;;;;;;;;;;;18.34;64.34;99164.16;2073635;28;19927;-74
2022/12/25 00:16:39;;;;;;;;;;;;;;;18.33;64.37;99159.78;2073150;28;20373;-74
2022/12/25 00:17:41;;;;;;;;;;;;;;;18.32;64.37;99153.59;2074048;28;19924;-74
2022/12/25 00:18:41;;;;;;;;;;;;;;;18.33;64.37;99157.09;2079137;28;19936;-74
2022/12/25 00:19:43;;;;;;;;;;;;;;;18.30;64.35;99155.63;2081745;28;19924;-74
2022/12/25 00:20:43;;;;;;;;;;;;;;;18.31;64.38;99149.25;2075765;28;19928;-74
2022/12/25 00:21:45;;;;;;;;;;;;;;;18.30;64.45;99158.31;2079468;28;19924;-74
2022/12/25 00:22:45;;;;;;;;;;;;;;;18.30;64.45;99158.31;2081382;28;20317;-74
2022/12/25 00:23:48;;;;;;;;;;;;;;;18.31;64.43;99160.00;2073412;28;19924;-74
2022/12/25 00:24:49;;;;;;;;;;;;;;;18.28;64.64;99161.19;2073917;28;19929;-74
2022/12/25 00:25:50;;;;;;;;;;;;;;;18.29;64.48;99164.72;2074376;28;19931;-75
2022/12/25 00:26:51;;;;;;;;;;;;;;;18.27;64.57;99164.06;2073446;28;19924;-74
2022/12/25 00:27:52;;;;;;;;;;;;;;;18.26;64.57;99157.88;2076922;28;19925;-74
2022/12/25 00:28:53;;;;;;;;;;;;;;;18.26;64.28;99159.72;2074065;28;19928;-74
2022/12/25 00:29:55;;;;;;;;;;;;;;;18.26;64.59;99159.72;2080402;28;20000;-74
2022/12/25 00:30:55;;;;;;;;;;;;;;;18.26;64.72;99160.56;2079444;28;19978;-74
2022/12/25 00:31:57;;;;;;;;;;;;;;;18.24;64.37;99162.59;2075875;28;20262;-74
2022/12/25 00:32:57;;;;;;;;;;;;;;;18.25;64.58;99158.06;2080076;28;19928;-74
2022/12/25 00:33:59;;;;;;;;;;;;;;;18.23;64.38;99160.09;2071985;28;19924;-74
2022/12/25 00:34:59;;;;;;;;;;;;;;;18.23;64.42;99162.78;2076538;28;19924;-74
2022/12/25 00:36:01;;;;;;;;;;;;;;;18.24;64.31;99153.72;2076643;28;20455;-74
2022/12/25 00:37:02;;;;;;;;;;;;;;;18.24;64.68;99156.38;2074183;28;20401;-74
2022/12/25 00:38:03;;;;;;;;;;;;;;;18.24;64.19;99157.22;2081627;28;19935;-74
2022/12/25 00:39:06;;;;;;;;;;;;;;;18.24;64.51;99157.22;2081142;28;19924;-74
2022/12/25 00:40:08;;;;;;;;;;;;;;;18.24;64.30;99156.38;2071765;28;19920;-74
2022/12/25 00:41:09;;;;;;;;;;;;;;;18.24;64.35;99161.75;2074249;28;19924;-73
2022/12/25 00:42:19;;;;;;;;;;;;;;;18.23;64.45;99165.47;2074435;28;19928;-75
2022/12/25 00:43:20;;;;;;;;;;;;;;;18.24;64.40;99161.75;2077169;28;19985;-74
2022/12/25 00:44:21;;;;;;;;;;;;;;;18.24;64.33;99165.28;2076808;28;19924;-74
2022/12/25 00:45:22;;;;;;;;;;;;;;;18.23;64.26;99163.63;2076291;28;20479;-74
2022/12/25 00:46:23;;;;;;;;;;;;;;;18.21;64.54;99162.97;2075246;28;19973;-75
2022/12/25 00:47:24;;;;;;;;;;;;;;;18.21;64.54;99167.50;2074482;28;20348;-74
2022/12/25 00:48:25;;;;;;;;;;;;;;;18.19;64.61;99158.81;2076773;28;20405;-74
2022/12/25 00:49:27;;;;;;;;;;;;;;;18.17;64.71;99160.88;2077646;28;19931;-74
2022/12/25 00:50:27;;;;;;;;;;;;;;;18.18;64.54;99162.53;2073642;28;19933;-75
2022/12/25 00:51:29;;;;;;;;;;;;;;;18.18;64.57;99157.16;2074258;28;19951;-74
2022/12/25 00:52:29;;;;;;;;;;;;;;;18.17;64.63;99156.31;2072627;28;19935;-74
2022/12/25 00:53:31;;;;;;;;;;;;;;;18.17;64.53;99159.00;2076320;28;19929;-74
2022/12/25 00:54:33;;;;;;;;;;;;;;;18.17;64.63;99160.88;2078479;28;19928;-74
2022/12/25 00:55:34;;;;;;;;;;;;;;;18.17;64.52;99161.69;2076951;28;20497;-74
2022/12/25 00:56:35;;;;;;;;;;;;;;;18.14;64.71;99156.69;2079053;28;20693;-74
2022/12/25 00:57:36;;;;;;;;;;;;;;;18.14;64.76;99159.38;2077464;28;19924;-74
2022/12/25 00:58:37;;;;;;;;;;;;;;;18.14;64.68;99166.63;2074832;28;19929;-74
2022/12/25 00:59:38;;;;;;;;;;;;;;;18.14;64.56;99167.44;2077213;28;19924;-75
2022/12/25 01:00:39;;;;;;;;;;;;;;;18.14;64.58;99167.44;2077181;28;20348;-74
2022/12/25 01:01:40;;;;;;;;;;;;;;;18.15;64.47;99168.25;2078994;28;19940;-74
2022/12/25 01:02:41;;;;;;;;;;;;;;;18.12;64.62;99168.63;2079865;28;20875;-74
2022/12/25 01:03:42;;;;;;;;;;;;;;;18.12;64.47;99171.31;2074854;28;19975;-74
2022/12/25 01:04:43;;;;;;;;;;;;;;;18.12;64.79;99174.00;2074999;28;19928;-73
2022/12/25 01:05:45;;;;;;;;;;;;;;;18.11;64.80;99173.19;2077608;28;19932;-74
2022/12/25 01:06:45;;;;;;;;;;;;;;;18.08;64.73;99171.72;2074245;28;20407;-74
2022/12/25 01:07:47;;;;;;;;;;;;;;;18.09;64.80;99175.22;2076822;28;19929;-74
2022/12/25 01:10:23;;;;;;;;;;;;;;;18.09;64.87;99181.41;2078266;28;19929;-74
2022/12/25 01:11:23;;;;;;;;;;;;;;;18.10;64.79;99187.59;2072866;28;20003;-74
2022/12/25 01:12:25;;;;;;;;;;;;;;;18.11;64.71;99183.06;2074880;28;19921;-74
2022/12/25 01:13:26;;;;;;;;;;;;;;;18.08;64.65;99185.13;2075585;28;19929;-74
2022/12/25 01:14:27;;;;;;;;;;;;;;;18.07;64.54;99186.13;2072903;28;21002;-74
2022/12/25 01:15:28;;;;;;;;;;;;;;;18.05;64.83;99185.50;2076631;28;20267;-74
2022/12/25 01:16:29;;;;;;;;;;;;;;;18.05;64.98;99190.00;2075617;28;20443;-74
2022/12/25 01:17:30;;;;;;;;;;;;;;;18.03;64.78;99187.53;2079025;28;20392;-74
2022/12/25 01:18:31;;;;;;;;;;;;;;;18.07;64.64;99179.94;2075576;28;20026;-74
2022/12/25 01:19:32;;;;;;;;;;;;;;;18.05;64.63;99184.66;2074696;28;20015;-74
2022/12/25 01:20:35;;;;;;;;;;;;;;;18.05;64.93;99184.66;2071226;28;19944;-74
2022/12/25 01:21:35;;;;;;;;;;;;;;;18.04;64.92;99186.50;2079959;28;19935;-74
2022/12/25 01:22:37;;;;;;;;;;;;;;;18.05;64.72;99190.00;2076970;28;19956;-74
2022/12/25 01:23:37;;;;;;;;;;;;;;;18.03;64.67;99192.91;2073283;28;21763;-74
2022/12/25 01:24:39;;;;;;;;;;;;;;;18.03;64.88;99192.06;2071594;28;19927;-74
2022/12/25 01:25:41;;;;;;;;;;;;;;;18.02;64.81;99182.34;2074067;28;19932;-75
2022/12/25 01:26:42;;;;;;;;;;;;;;;18.02;64.73;99185.03;2077504;28;19959;-74
2022/12/25 01:27:43;;;;;;;;;;;;;;;18.02;64.88;99185.84;2075476;28;19924;-73
2022/12/25 01:28:45;;;;;;;;;;;;;;;18.04;64.50;99185.69;2074847;28;19925;-74
2022/12/25 01:29:45;;;;;;;;;;;;;;;18.02;64.88;99185.03;2075510;28;19925;-73
2022/12/25 01:30:48;;;;;;;;;;;;;;;18.00;64.78;99174.50;2070257;28;19960;-74
2022/12/25 01:31:48;;;;;;;;;;;;;;;18.00;64.89;99177.16;2080277;28;19924;-75
2022/12/25 01:32:50;;;;;;;;;;;;;;;18.01;64.96;99181.50;2077097;28;20006;-74
2022/12/25 01:33:51;;;;;;;;;;;;;;;18.01;64.63;99188.72;2065505;28;20411;-74
2022/12/25 01:34:52;;;;;;;;;;;;;;;17.99;64.89;99191.59;2078149;28;20046;-75
2022/12/25 01:35:52;;;;;;;;;;;;;;;18.00;64.71;99190.59;2077659;28;19921;-74
2022/12/25 01:36:54;;;;;;;;;;;;;;;18.00;64.92;99190.59;2079252;28;19943;-74
2022/12/25 01:37:55;;;;;;;;;;;;;;;17.99;64.77;99186.22;2080101;28;20077;-74
2022/12/25 01:38:56;;;;;;;;;;;;;;;17.99;64.85;99185.41;2080299;28;19928;-74
2022/12/25 01:39:57;;;;;;;;;;;;;;;17.97;64.72;99193.66;2076896;28;19932;-74
2022/12/25 01:41:00;;;;;;;;;;;;;;;17.98;64.85;99184.56;2076356;28;19929;-74
2022/12/25 01:42:00;;;;;;;;;;;;;;;17.99;64.53;99198.81;2075317;28;19925;-74
2022/12/25 01:43:02;;;;;;;;;;;;;;;17.99;64.68;99188.91;2073788;28;20400;-74
2022/12/25 01:44:04;;;;;;;;;;;;;;;17.97;64.74;99188.28;2071646;28;19932;-74
2022/12/25 01:45:26;;;;;;;;;;;;;;;17.98;64.66;99195.31;2080518;28;20332;-74
2022/12/25 01:46:27;;;;;;;;;;;;;;;17.98;64.75;99198.00;2077647;28;19920;-74
2022/12/25 01:47:28;;;;;;;;;;;;;;;17.98;64.89;99199.84;2073786;28;20321;-74
2022/12/25 01:48:32;;;;;;;;;;;;;;;17.96;64.91;99197.34;2081651;28;19924;-74
2022/12/25 01:49:35;;;;;;;;;;;;;;;17.96;64.75;99200.00;2075034;28;20933;-74
2022/12/25 01:50:38;;;;;;;;;;;;;;;17.94;64.95;99191.34;2075973;28;19925;-74
2022/12/25 01:51:40;;;;;;;;;;;;;;;17.96;64.80;99191.13;2076586;28;19928;-74
2022/12/25 01:52:42;;;;;;;;;;;;;;;17.95;64.98;99194.84;2074617;28;19925;-74
2022/12/25 01:53:42;;;;;;;;;;;;;;;17.92;64.79;99185.31;2077220;28;20606;-73
2022/12/25 01:54:46;;;;;;;;;;;;;;;17.95;64.80;99197.53;2064852;28;19932;-74
2022/12/25 01:55:49;;;;;;;;;;;;;;;17.94;64.83;99193.16;2074462;28;19932;-74
2022/12/25 01:56:53;;;;;;;;;;;;;;;17.95;64.92;99189.47;2072353;28;20537;-74
2022/12/25 01:57:54;;;;;;;;;;;;;;;17.96;64.60;99185.78;2074290;28;24165;-74
2022/12/25 01:58:56;;;;;;;;;;;;;;;17.95;64.72;99184.94;2073142;28;19921;-74
2022/12/25 01:59:57;;;;;;;;;;;;;;;17.95;64.57;99194.84;2080010;28;19982;-74
2022/12/25 02:00:59;;;;;;;;;;;;;;;17.94;64.84;99199.41;2075544;28;19929;-74
2022/12/25 02:01:59;;;;;;;;;;;;;;;17.92;64.97;99197.91;2076124;28;19929;-74
2022/12/25 02:03:01;;;;;;;;;;;;;;;17.92;64.84;99201.41;2078485;28;19927;-74
2022/12/25 02:04:06;;;;;;;;;;;;;;;17.94;64.83;99193.16;2077510;28;19921;-74
2022/12/25 02:05:10;;;;;;;;;;;;;;;17.92;64.96;99193.38;2079929;28;19925;-74
2022/12/25 02:06:10;;;;;;;;;;;;;;;17.89;65.03;99196.44;2076230;28;19921;-74
2022/12/25 02:07:14;;;;;;;;;;;;;;;17.90;64.75;99192.72;2079456;28;20572;-74
2022/12/25 02:08:15;;;;;;;;;;;;;;;17.88;65.00;99201.97;2082912;28;20305;-74
2022/12/25 02:09:18;;;;;;;;;;;;;;;17.89;64.97;99199.13;2077481;28;19978;-74
2022/12/25 02:10:20;;;;;;;;;;;;;;;17.90;64.93;99203.44;2078329;28;19925;-75
2022/12/25 02:12:38;;;;;;;;;;;;;;;17.89;64.87;99203.66;2075736;28;19932;-74
2022/12/25 02:13:39;;;;;;;;;;;;;;;17.89;64.78;99206.34;2077917;28;19940;-75
2022/12/25 02:14:40;;;;;;;;;;;;;;;17.89;64.69;99209.84;2080082;28;19930;-74
2022/12/25 02:15:46;;;;;;;;;;;;;;;17.86;64.79;99199.47;2079553;28;19925;-74
2022/12/25 02:16:51;;;;;;;;;;;;;;;17.84;64.92;99209.56;2078137;28;20340;-74
2022/12/25 02:17:56;;;;;;;;;;;;;;;17.86;65.13;99199.47;2076326;28;19932;-74
2022/12/25 02:19:00;;;;;;;;;;;;;;;17.85;64.98;99201.31;2077635;28;20566;-74
2022/12/25 02:20:19;;;;;;;;;;;;;;;17.84;64.83;99198.81;2072660;28;19931;-74
2022/12/25 02:21:30;;;;;;;;;;;;;;;17.86;64.83;99203.00;2065410;28;21969;-74
2022/12/25 02:22:37;;;;;;;;;;;;;;;17.85;64.87;99205.84;2076263;28;19928;-74
2022/12/25 02:23:48;;;;;;;;;;;;;;;17.85;64.98;99197.78;2077110;28;20007;-74
2022/12/25 02:24:56;;;;;;;;;;;;;;;17.86;64.98;99205.69;2078890;28;19924;-74
2022/12/25 02:26:04;;;;;;;;;;;;;;;17.86;64.78;99205.69;2075253;28;19925;-74
2022/12/25 02:27:15;;;;;;;;;;;;;;;17.85;64.89;99203.16;2082560;28;20432;-74
2022/12/25 02:28:21;;;;;;;;;;;;;;;17.83;64.81;99200.69;2078255;28;20496;-74
2022/12/25 02:29:24;;;;;;;;;;;;;;;17.82;65.00;99207.03;2077838;28;19931;-74
2022/12/25 02:30:26;;;;;;;;;;;;;;;17.82;64.96;99206.22;2081516;28;19930;-74
2022/12/25 02:31:30;;;;;;;;;;;;;;;17.84;64.88;99207.69;2084805;28;19970;-74
2022/12/25 02:32:35;;;;;;;;;;;;;;;17.84;64.97;99209.56;2078952;28;19925;-74
2022/12/25 02:35:00;;;;;;;;;;;;;;;17.81;64.88;99215.31;2074716;28;19986;-74
2022/12/25 02:36:04;;;;;;;;;;;;;;;17.83;64.89;99218.63;2079384;28;19977;-74
2022/12/25 02:37:06;;;;;;;;;;;;;;;17.81;64.84;99215.31;2080503;28;19959;-74
2022/12/25 02:38:11;;;;;;;;;;;;;;;17.81;64.95;99218.81;2083693;28;20394;-74
2022/12/25 02:40:37;;;;;;;;;;;;;;;17.80;64.97;99208.25;2073719;28;20385;-74
2022/12/25 02:41:40;;;;;;;;;;;;;;;17.78;64.88;99213.81;2080956;28;20507;-74
2022/12/25 03:07:06;;;;;;;;;;;;;;;17.71;64.98;99217.38;2077685;28;19924;-73
2022/12/25 03:08:09;;;;;;;;;;;;;;;17.72;65.06;99216.34;2080495;28;20075;-74
2022/12/25 03:11:57;;;;;;;;;;;;;;;17.69;65.00;99212.22;2073227;28;20640;-74
2022/12/25 03:13:01;;;;;;;;;;;;;;;17.71;64.76;99214.69;2073064;28;19932;-74
2022/12/25 03:18:04;;;;;;;;;;;;;;;17.70;64.92;99218.41;2075226;28;19932;-74
2022/12/25 03:26:53;;;;;;;;;;;;;;;17.71;64.90;99212.00;2082339;28;19929;-74
2022/12/25 03:27:02;;;;;;;;;;;;;;;17.67;65.09;99216.09;2045161;28;20545;-74
2022/12/25 03:28:03;;;;;;;;;;;;;;;17.64;64.96;99214.59;2070495;28;20567;-74
2022/12/25 03:29:04;;;;;;;;;;;;;;;17.64;65.07;99210.06;2074121;28;19967;-74
2022/12/25 03:31:27;;;;;;;;;;;;;;;17.67;64.92;99213.41;2082954;28;19929;-74
2022/12/25 03:32:36;;;;;;;;;;;;;;;17.67;65.17;99216.09;2076612;28;19951;-73
2022/12/25 03:35:21;;;;;;;;;;;;;;;17.65;65.12;99211.72;2075830;28;19932;-74
2022/12/25 03:35:21;;;;;;;;;;;;;;;17.64;65.28;99210.06;2081149;28;19921;-74
2022/12/25 03:36:27;;;;;;;;;;;;;;;17.64;65.13;99211.94;2079152;28;20416;-74
2022/12/25 04:36:40;;;;;;;;;;;;;;;17.53;64.71;99215.06;2073751;28;20282;-74
2022/12/25 04:37:40;;;;;;;;;;;;;;;17.54;65.07;99214.84;2074994;28;22202;-74
2022/12/25 04:38:42;;;;;;;;;;;;;;;17.60;64.88;99213.28;2080315;28;19928;-73
2022/12/25 04:39:42;;;;;;;;;;;;;;;17.64;64.57;99207.38;2078384;28;21349;-73
2022/12/25 04:40:44;;;;;;;;;;;;;;;17.70;64.61;99213.88;2072007;28;19928;-73
2022/12/25 04:41:44;;;;;;;;;;;;;;;17.77;64.38;99216.63;2082142;28;19924;-73
2022/12/25 04:42:46;;;;;;;;;;;;;;;17.84;64.23;99220.28;2078556;28;20602;-73
2022/12/25 04:43:47;;;;;;;;;;;;;;;17.90;64.11;99224.91;2077783;28;19928;-73
2022/12/25 04:44:48;;;;;;;;;;;;;;;17.96;63.95;99218.81;2081615;28;19985;-73
2022/12/25 04:45:51;;;;;;;;;;;;;;;18.01;63.94;99221.78;2073788;28;19925;-73
2022/12/25 04:46:52;;;;;;;;;;;;;;;18.05;63.71;99223.09;2075403;28;20007;-73
2022/12/25 04:47:53;;;;;;;;;;;;;;;18.09;63.72;99218.16;2072145;28;19928;-74
2022/12/25 04:48:54;;;;;;;;;;;;;;;18.14;63.79;99217.63;2073958;28;19937;-74
2022/12/25 04:49:55;;;;;;;;;;;;;;;18.16;63.85;99219.06;2076050;28;19994;-74
2022/12/25 04:50:55;;;;;;;;;;;;;;;18.20;63.71;99219.56;2079682;28;19951;-74
2022/12/25 04:51:58;;;;;;;;;;;;;;;18.24;63.71;99226.19;2071957;28;19931;-74
2022/12/25 04:52:59;;;;;;;;;;;;;;;18.25;63.61;99217.97;2081572;28;19928;-73
2022/12/25 04:54:00;;;;;;;;;;;;;;;18.28;63.46;99219.44;2075806;28;21981;-74
2022/12/25 04:55:01;;;;;;;;;;;;;;;18.30;63.50;99214.69;2074376;28;19928;-74
2022/12/25 04:56:02;;;;;;;;;;;;;;;18.33;63.49;99219.72;2077239;28;20297;-74
2022/12/25 04:57:03;;;;;;;;;;;;;;;18.36;63.41;99221.19;2078354;28;19929;-73
2022/12/25 04:58:04;;;;;;;;;;;;;;;18.38;63.44;99225.34;2076189;28;19924;-74
2022/12/25 04:59:05;;;;;;;;;;;;;;;18.39;63.46;99218.97;2078553;28;19994;-74
2022/12/25 05:00:07;;;;;;;;;;;;;;;18.42;63.36;99217.75;2073279;28;19924;-74
2022/12/25 05:01:08;;;;;;;;;;;;;;;18.42;63.43;99215.91;2073570;28;20441;-73
2022/12/25 05:02:09;;;;;;;;;;;;;;;18.46;63.30;99219.03;2074585;28;19928;-74
2022/12/25 05:03:10;;;;;;;;;;;;;;;18.47;63.27;99224.25;2077217;28;19981;-73
2022/12/25 05:04:11;;;;;;;;;;;;;;;18.50;63.37;99218.47;2077477;28;19969;-74
2022/12/25 05:05:12;;;;;;;;;;;;;;;18.50;63.58;99218.47;2078103;28;19924;-74
2022/12/25 05:06:13;;;;;;;;;;;;;;;18.53;63.21;99218.09;2079167;28;20016;-74
2022/12/25 05:07:15;;;;;;;;;;;;;;;18.54;63.26;99217.06;2076087;28;19989;-74
2022/12/25 05:08:16;;;;;;;;;;;;;;;18.52;63.71;99221.78;2077264;28;20283;-73
2022/12/25 05:09:17;;;;;;;;;;;;;;;18.57;63.62;99218.56;2078155;28;19924;-74
2022/12/25 05:10:19;;;;;;;;;;;;;;;18.57;63.51;99215.03;2074744;28;19920;-74
2022/12/25 05:11:20;;;;;;;;;;;;;;;18.59;63.54;99213.81;2079946;28;19929;-74
2022/12/25 05:12:22;;;;;;;;;;;;;;;18.60;63.26;99220.03;2073360;28;19925;-74
2022/12/25 05:13:23;;;;;;;;;;;;;;;18.61;63.49;99211.78;2074068;28;19924;-74
2022/12/25 05:14:24;;;;;;;;;;;;;;;18.64;63.28;99211.41;2080322;28;20483;-74
2022/12/25 05:15:25;;;;;;;;;;;;;;;18.65;63.26;99209.56;2077524;28;19924;-74
2022/12/25 05:16:26;;;;;;;;;;;;;;;18.68;63.27;99217.22;2078876;28;19921;-73
2022/12/25 05:17:27;;;;;;;;;;;;;;;18.72;63.29;99213.13;2080476;28;19928;-74
2022/12/25 05:18:28;;;;;;;;;;;;;;;18.73;63.41;99220.19;2081486;28;19931;-74
2022/12/25 05:19:29;;;;;;;;;;;;;;;18.75;63.32;99220.88;2072027;28;20552;-74
2022/12/25 05:20:30;;;;;;;;;;;;;;;18.79;63.00;99224.81;2073890;28;19928;-74
2022/12/25 05:21:31;;;;;;;;;;;;;;;18.82;63.02;99224.44;2078133;28;19928;-74
2022/12/25 05:22:34;;;;;;;;;;;;;;;18.84;63.02;99225.09;2073951;28;19921;-74
2022/12/25 05:23:34;;;;;;;;;;;;;;;18.85;62.88;99224.06;2079306;28;19928;-74
2022/12/25 05:24:36;;;;;;;;;;;;;;;18.89;63.00;99224.53;2074386;28;19974;-74
2022/12/25 05:25:38;;;;;;;;;;;;;;;18.91;63.16;99225.97;2074628;28;19929;-74
2022/12/25 05:26:39;;;;;;;;;;;;;;;18.96;62.85;99230.78;2072310;28;20274;-74
2022/12/25 05:27:40;;;;;;;;;;;;;;;18.97;63.27;99230.59;2076217;28;19924;-74
2022/12/25 05:28:41;;;;;;;;;;;;;;;19.02;62.88;99229.19;2072834;28;20032;-74
2022/12/25 05:29:42;;;;;;;;;;;;;;;19.03;62.88;99230.84;2077498;28;19927;-74
2022/12/25 05:30:44;;;;;;;;;;;;;;;19.03;62.77;99231.69;2078551;28;19935;-72
2022/12/25 05:31:46;;;;;;;;;;;;;;;19.05;62.84;99228.81;2078828;28;20420;-74
2022/12/25 05:32:48;;;;;;;;;;;;;;;19.11;62.81;99234.25;2073756;28;19968;-74
2022/12/25 05:33:49;;;;;;;;;;;;;;;19.07;62.85;99238.34;2072866;28;20703;-74
2022/12/25 05:34:50;;;;;;;;;;;;;;;19.10;62.85;99237.13;2074761;28;20062;-74
2022/12/25 05:35:51;;;;;;;;;;;;;;;19.12;62.97;99237.78;2079075;28;20344;-74
2022/12/25 05:36:52;;;;;;;;;;;;;;;19.12;62.85;99241.28;2077268;28;19963;-74
2022/12/25 05:37:54;;;;;;;;;;;;;;;19.11;62.93;99239.63;2072565;28;20551;-74
2022/12/25 05:38:56;;;;;;;;;;;;;;;19.13;63.10;99239.44;2078248;28;19928;-74
2022/12/25 05:39:56;;;;;;;;;;;;;;;19.14;62.76;99250.00;2075532;28;19978;-74
2022/12/25 05:40:58;;;;;;;;;;;;;;;19.14;62.78;99244.63;2074863;28;19936;-73
2022/12/25 05:41:58;;;;;;;;;;;;;;;19.15;62.81;99250.84;2079363;28;19999;-74
2022/12/25 05:43:00;;;;;;;;;;;;;;;19.14;62.82;99244.63;2080555;28;20174;-73
2022/12/25 05:44:01;;;;;;;;;;;;;;;19.14;63.19;99250.00;2075459;28;20462;-74
2022/12/25 05:45:02;;;;;;;;;;;;;;;19.17;62.80;99254.16;2077666;28;19932;-74
2022/12/25 05:46:04;;;;;;;;;;;;;;;19.17;62.87;99255.00;2075761;28;19935;-73
2022/12/25 05:47:05;;;;;;;;;;;;;;;19.19;63.11;99252.09;2076224;28;21499;-74
2022/12/25 05:48:05;;;;;;;;;;;;;;;19.19;63.00;99257.47;2074521;28;19929;-74
2022/12/25 05:49:07;;;;;;;;;;;;;;;19.19;62.89;99258.34;2074740;28;19924;-74
2022/12/25 05:50:08;;;;;;;;;;;;;;;19.19;63.11;99260.16;2076825;28;20394;-74
2022/12/25 05:51:10;;;;;;;;;;;;;;;19.20;63.13;99260.00;2077803;28;20569;-73
2022/12/25 05:52:10;;;;;;;;;;;;;;;19.19;63.12;99263.72;2080882;28;20424;-74
2022/12/25 05:53:14;;;;;;;;;;;;;;;19.20;63.00;99260.00;2081742;28;19924;-74
2022/12/25 05:54:15;;;;;;;;;;;;;;;19.21;62.84;99255.44;2077920;28;19935;-74
2022/12/25 05:55:17;;;;;;;;;;;;;;;19.21;63.14;99263.50;2077669;28;19986;-74
2022/12/25 05:56:17;;;;;;;;;;;;;;;19.19;62.98;99254.78;2075213;28;19925;-74
2022/12/25 05:57:19;;;;;;;;;;;;;;;19.20;63.02;99264.53;2073225;28;19929;-74
2022/12/25 05:58:19;;;;;;;;;;;;;;;19.22;62.96;99267.84;2075721;28;19940;-74
2022/12/25 05:59:21;;;;;;;;;;;;;;;19.21;62.83;99260.81;2080126;28;20111;-74
2022/12/25 06:00:21;;;;;;;;;;;;;;;19.21;62.95;99266.19;2075499;28;19932;-74
2022/12/25 06:01:24;;;;;;;;;;;;;;;19.20;63.09;99265.38;2066691;28;19929;-74
2022/12/25 06:02:25;;;;;;;;;;;;;;;19.21;62.96;99260.81;2074070;28;19925;-74
2022/12/25 06:03:27;;;;;;;;;;;;;;;19.22;62.96;99262.47;2072189;28;19925;-74
2022/12/25 06:04:27;;;;;;;;;;;;;;;19.20;63.23;99268.06;2074746;28;20050;-74
2022/12/25 06:05:29;;;;;;;;;;;;;;;19.21;63.38;99271.56;2075302;28;19929;-75
2022/12/25 06:06:29;;;;;;;;;;;;;;;19.21;63.21;99276.94;2073631;28;19925;-74
2022/12/25 06:07:30;;;;;;;;;;;;;;;19.21;62.95;99266.19;2074076;28;20713;-74
2022/12/25 06:08:33;;;;;;;;;;;;;;;19.22;63.07;99264.34;2074155;28;19925;-73
2022/12/25 06:09:34;;;;;;;;;;;;;;;19.22;63.00;99267.84;2076557;28;19924;-74
2022/12/25 06:10:36;;;;;;;;;;;;;;;19.24;62.93;99273.88;2073799;28;19929;-73
2022/12/25 06:11:36;;;;;;;;;;;;;;;19.23;63.05;99274.09;2069406;28;19924;-73
2022/12/25 06:12:38;;;;;;;;;;;;;;;19.21;63.01;99271.56;2076562;28;19928;-74
2022/12/25 06:13:39;;;;;;;;;;;;;;;19.22;63.39;99277.78;2073146;28;19990;-74
2022/12/25 06:14:40;;;;;;;;;;;;;;;19.21;63.23;99276.94;2073381;28;20511;-74
2022/12/25 06:15:41;;;;;;;;;;;;;;;19.23;63.03;99274.91;2075542;28;20392;-74
2022/12/25 06:16:42;;;;;;;;;;;;;;;19.23;63.04;99276.78;2069794;28;19974;-74
2022/12/25 06:17:43;;;;;;;;;;;;;;;19.22;63.30;99275.91;2075581;28;20406;-73
2022/12/25 06:18:45;;;;;;;;;;;;;;;19.21;63.03;99285.03;2074232;28;19952;-73
2022/12/25 06:19:46;;;;;;;;;;;;;;;19.22;63.00;99275.91;2080726;28;20351;-73
2022/12/25 06:20:47;;;;;;;;;;;;;;;19.23;62.84;99280.28;2074626;28;19920;-74
2022/12/25 06:21:51;;;;;;;;;;;;;;;19.24;62.99;99290.00;2077441;28;20696;-72
2022/12/25 06:22:52;;;;;;;;;;;;;;;19.23;62.88;99285.66;2076421;28;19920;-74
2022/12/25 06:23:54;;;;;;;;;;;;;;;19.24;62.76;99292.69;2076853;28;20325;-74
2022/12/25 06:24:56;;;;;;;;;;;;;;;19.22;62.71;99283.97;2077231;28;19929;-74
2022/12/25 06:25:57;;;;;;;;;;;;;;;19.19;62.84;99289.75;2077135;28;20313;-73
2022/12/25 06:26:58;;;;;;;;;;;;;;;19.17;63.25;99286.44;2076543;28;20614;-75
2022/12/25 06:27:59;;;;;;;;;;;;;;;19.18;63.29;99288.09;2068673;28;19925;-74
2022/12/25 06:29:00;;;;;;;;;;;;;;;19.20;63.20;99292.25;2074269;28;19956;-74
2022/12/25 06:30:01;;;;;;;;;;;;;;;19.20;62.98;99291.44;2076474;28;20000;-73
2022/12/25 06:31:05;;;;;;;;;;;;;;;19.17;62.93;99287.25;2075676;28;19929;-73
2022/12/25 06:32:06;;;;;;;;;;;;;;;19.17;63.04;99289.97;2076840;28;19921;-74
2022/12/25 06:33:07;;;;;;;;;;;;;;;19.19;63.07;99295.13;2076934;28;20507;-75
2022/12/25 06:34:09;;;;;;;;;;;;;;;19.21;63.13;99293.09;2069056;28;19959;-74
2022/12/25 06:35:10;;;;;;;;;;;;;;;19.17;63.17;99294.50;2071011;28;20478;-74
2022/12/25 06:36:12;;;;;;;;;;;;;;;19.19;63.14;99289.75;2078266;28;20006;-74
2022/12/25 06:37:13;;;;;;;;;;;;;;;19.17;63.07;99287.25;2081811;28;19970;-74
2022/12/25 06:38:14;;;;;;;;;;;;;;;19.17;62.83;99287.25;2075552;28;20309;-74
2022/12/25 06:39:17;;;;;;;;;;;;;;;19.17;63.01;99289.97;2080954;28;19924;-75
2022/12/25 06:40:17;;;;;;;;;;;;;;;19.16;63.27;99287.44;2078365;28;20305;-74
2022/12/25 06:41:20;;;;;;;;;;;;;;;19.16;63.24;99290.13;2074696;28;19925;-74
2022/12/25 06:42:20;;;;;;;;;;;;;;;19.20;63.13;99288.75;2072747;28;19940;-74
2022/12/25 06:43:22;;;;;;;;;;;;;;;19.16;63.26;99284.75;2074579;28;19924;-74
2022/12/25 06:44:22;;;;;;;;;;;;;;;19.15;63.11;99286.63;2071338;28;19930;-74
2022/12/25 06:45:24;;;;;;;;;;;;;;;19.16;62.90;99284.75;2081303;28;19947;-74
2022/12/25 06:46:27;;;;;;;;;;;;;;;19.16;62.86;99292.81;2071314;28;19927;-74
2022/12/25 06:47:28;;;;;;;;;;;;;;;19.15;62.97;99286.63;2079493;28;20459;-74
2022/12/25 06:48:29;;;;;;;;;;;;;;;19.13;63.27;99285.13;2068963;28;20286;-73
2022/12/25 06:49:31;;;;;;;;;;;;;;;19.13;63.38;99287.81;2076284;28;19929;-74
2022/12/25 06:50:31;;;;;;;;;;;;;;;19.14;63.10;99287.66;2078319;28;19929;-74
2022/12/25 06:51:33;;;;;;;;;;;;;;;19.17;63.18;99291.81;2078894;28;19927;-74
2022/12/25 06:52:34;;;;;;;;;;;;;;;19.17;62.91;99289.13;2079879;28;19935;-74
2022/12/25 06:53:35;;;;;;;;;;;;;;;19.16;63.16;99290.13;2071882;28;19925;-72
2022/12/25 06:54:37;;;;;;;;;;;;;;;19.18;62.91;99301.53;2079690;28;19932;-73
2022/12/25 06:55:38;;;;;;;;;;;;;;;19.19;62.99;99298.66;2079250;28;19929;-73
2022/12/25 06:56:39;;;;;;;;;;;;;;;19.19;63.05;99301.38;2080192;28;19929;-73
2022/12/25 06:57:40;;;;;;;;;;;;;;;19.20;62.96;99304.88;2080175;28;19933;-72
2022/12/25 06:58:41;;;;;;;;;;;;;;;19.19;62.79;99300.50;2075487;28;19925;-73
2022/12/25 06:59:43;;;;;;;;;;;;;;;19.20;62.95;99303.00;2072554;28;19924;-72
2022/12/25 07:00:43;;;;;;;;;;;;;;;19.17;63.35;99306.09;2076868;28;19929;-73
2022/12/25 07:01:45;;;;;;;;;;;;;;;19.16;63.02;99311.66;2072792;28;20359;-72
2022/12/25 07:02:47;;;;;;;;;;;;;;;19.17;63.14;99298.03;2079936;28;20301;-73
2022/12/25 07:03:50;;;;;;;;;;;;;;;19.17;63.24;99302.56;2079105;28;20025;-74
2022/12/25 07:04:51;;;;;;;;;;;;;;;19.16;63.31;99304.41;2076806;28;20930;-73
2022/12/25 07:05:52;;;;;;;;;;;;;;;19.16;63.13;99307.09;2076313;28;20562;-73
2022/12/25 07:06:53;;;;;;;;;;;;;;;19.17;63.16;99308.78;2077175;28;19973;-73